createdAt,value
2022-12-05T00:01:16.859Z,3.63
2022-12-05T00:03:46.153Z,3.56
2022-12-05T00:06:13.755Z,3.37
2022-12-05T00:08:41.451Z,3.45
2022-12-05T00:11:13.627Z,3.57
2022-12-05T00:13:41.563Z,3.75
2022-12-05T00:16:11.331Z,3.72
2022-12-05T00:18:40.412Z,4.05
2022-12-05T00:21:08.658Z,3.70
2022-12-05T00:23:36.081Z,3.98
2022-12-05T00:26:04.946Z,4.47
2022-12-05T00:28:32.503Z,3.74
2022-12-05T00:31:03.667Z,3.39
2022-12-05T00:33:31.102Z,3.63
2022-12-05T00:36:04.488Z,4.39
2022-12-05T00:38:31.904Z,3.84
2022-12-05T00:41:04.382Z,3.49
2022-12-05T00:43:31.915Z,3.99
2022-12-05T00:46:02.396Z,4.28
2022-12-05T00:48:29.891Z,4.72
2022-12-05T00:51:03.694Z,4.48
2022-12-05T00:53:31.672Z,3.71
2022-12-05T00:56:03.590Z,3.87
2022-12-05T00:58:31.357Z,3.87
2022-12-05T01:01:07.294Z,4.08
2022-12-05T01:03:35.031Z,4.20
2022-12-05T01:06:05.913Z,4.15
2022-12-05T01:08:34.346Z,4.12
2022-12-05T01:11:02.615Z,3.95
2022-12-05T01:13:30.497Z,4.02
2022-12-05T01:15:58.680Z,3.69
2022-12-05T01:18:26.928Z,3.46
2022-12-05T01:20:54.730Z,3.48
2022-12-05T01:23:23.737Z,3.36
2022-12-05T01:25:53.222Z,3.41
2022-12-05T01:28:21.389Z,3.40
2022-12-05T01:30:50.769Z,3.45
2022-12-05T01:33:18.588Z,3.48
2022-12-05T01:35:46.106Z,3.83
2022-12-05T01:38:13.926Z,4.16
2022-12-05T01:40:42.624Z,3.93
2022-12-05T01:43:15.822Z,3.68
2022-12-05T01:45:45.360Z,3.82
2022-12-05T01:48:17.330Z,3.84
2022-12-05T01:50:45.383Z,3.65
2022-12-05T01:53:12.837Z,3.53
2022-12-05T01:55:40.434Z,3.56
2022-12-05T01:58:11.123Z,3.71
2022-12-05T02:00:40.579Z,3.66
2022-12-05T02:03:12.663Z,4.05
2022-12-05T02:05:40.160Z,3.48
2022-12-05T02:08:10.250Z,3.36
2022-12-05T02:10:41.290Z,3.28
2022-12-05T02:13:22.324Z,3.40
2022-12-05T02:15:58.629Z,3.68
2022-12-05T02:18:40.154Z,3.76
2022-12-05T02:21:36.304Z,4.08
2022-12-05T02:24:28.649Z,4.00
2022-12-05T02:27:19.033Z,3.95
2022-12-05T02:30:02.840Z,3.68
2022-12-05T02:32:50.794Z,3.72
2022-12-05T02:35:34.070Z,3.55
2022-12-05T02:38:13.475Z,3.49
2022-12-05T02:40:48.845Z,3.59
2022-12-05T02:43:21.393Z,3.87
2022-12-05T02:45:55.386Z,3.97
2022-12-05T02:48:24.701Z,3.71
2022-12-05T02:50:54.552Z,3.71
2022-12-05T02:53:23.649Z,3.67
2022-12-05T02:55:51.273Z,3.72
2022-12-05T02:58:24.173Z,3.71
2022-12-05T03:00:57.317Z,3.97
2022-12-05T03:03:26.251Z,4.12
2022-12-05T03:06:01.344Z,3.75
2022-12-05T03:08:32.281Z,4.03
2022-12-05T03:11:02.404Z,3.61
2022-12-05T03:13:34.893Z,3.53
2022-12-05T03:16:09.076Z,3.42
2022-12-05T03:18:41.298Z,3.50
2022-12-05T03:21:16.221Z,3.68
2022-12-05T03:23:48.185Z,3.54
2022-12-05T03:26:26.619Z,3.98
2022-12-05T03:29:02.519Z,4.31
2022-12-05T03:31:39.349Z,3.75
2022-12-05T03:34:11.104Z,3.83
2022-12-05T03:36:43.875Z,3.87
2022-12-05T03:39:18.747Z,3.71
2022-12-05T03:41:56.526Z,3.86
2022-12-05T03:44:29.981Z,4.19
2022-12-05T03:47:05.534Z,4.12
2022-12-05T03:49:38.749Z,3.97
2022-12-05T03:52:11.370Z,4.38
2022-12-05T03:54:43.375Z,4.37
2022-12-05T03:57:16.080Z,4.72
2022-12-05T03:59:47.762Z,3.79
2022-12-05T04:02:27.084Z,4.10
2022-12-05T04:04:57.719Z,3.67
2022-12-05T04:07:26.709Z,4.02
2022-12-05T04:09:58.499Z,3.62
2022-12-05T04:12:30.131Z,3.78
2022-12-05T04:15:02.878Z,3.74
2022-12-05T04:17:36.123Z,3.88
2022-12-05T04:20:25.372Z,4.15
2022-12-05T04:22:52.995Z,3.81
2022-12-05T04:25:35.083Z,4.28
2022-12-05T04:28:28.211Z,4.18
2022-12-05T04:31:04.196Z,4.20
2022-12-05T04:33:40.633Z,3.91
2022-12-05T04:36:13.248Z,4.85
2022-12-05T04:38:44.906Z,4.13
2022-12-05T04:41:16.671Z,3.96
2022-12-05T04:43:48.162Z,3.63
2022-12-05T04:46:19.088Z,3.79
2022-12-05T04:48:52.152Z,3.76
2022-12-05T04:51:24.656Z,4.14
2022-12-05T04:53:58.347Z,4.11
2022-12-05T04:56:30.780Z,3.72
2022-12-05T04:58:58.451Z,4.10
2022-12-05T05:01:30.989Z,4.51
2022-12-05T05:04:04.533Z,4.67
2022-12-05T05:06:32.135Z,4.46
2022-12-05T05:09:00.025Z,4.14
2022-12-05T05:11:29.902Z,3.97
2022-12-05T05:13:57.376Z,3.71
2022-12-05T05:16:26.949Z,3.81
2022-12-05T05:18:55.047Z,4.39
2022-12-05T05:21:26.136Z,3.92
2022-12-05T05:23:54.367Z,4.13
2022-12-05T05:26:22.704Z,3.92
2022-12-05T05:28:50.864Z,4.29
2022-12-05T05:31:19.890Z,4.03
2022-12-05T05:33:49.839Z,3.81
2022-12-05T05:36:17.481Z,4.26
2022-12-05T05:38:48.253Z,4.06
2022-12-05T05:41:17.188Z,4.10
2022-12-05T05:43:44.976Z,4.16
2022-12-05T05:46:13.255Z,4.10
2022-12-05T05:48:40.871Z,4.11
2022-12-05T05:51:10.859Z,4.35
2022-12-05T05:53:39.207Z,4.35
2022-12-05T05:56:10.534Z,4.50
2022-12-05T05:58:38.048Z,4.78
2022-12-05T06:01:06.581Z,4.07
2022-12-05T06:03:34.351Z,4.70
2022-12-05T06:06:04.684Z,4.47
2022-12-05T06:08:32.362Z,4.37
2022-12-05T06:11:01.545Z,4.49
2022-12-05T06:13:30.292Z,4.85
2022-12-05T06:15:57.832Z,4.42
2022-12-05T06:18:25.396Z,4.11
2022-12-05T06:20:54.113Z,3.96
2022-12-05T06:23:21.938Z,4.50
2022-12-05T06:25:50.062Z,4.54
2022-12-05T06:28:17.766Z,4.29
2022-12-05T06:30:46.850Z,3.98
2022-12-05T06:33:15.654Z,4.25
2022-12-05T06:35:43.815Z,4.98
2022-12-05T06:38:11.915Z,5.07
2022-12-05T06:40:41.892Z,4.37
2022-12-05T06:43:09.496Z,4.65
2022-12-05T06:45:38.895Z,4.96
2022-12-05T06:48:07.963Z,5.12
2022-12-05T06:50:35.346Z,5.81
2022-12-05T06:53:02.752Z,5.72
2022-12-05T06:55:30.226Z,5.01
2022-12-05T06:57:58.346Z,4.69
2022-12-05T07:00:55.194Z,4.72
2022-12-05T07:03:23.996Z,4.96
2022-12-05T07:05:51.453Z,4.71
2022-12-05T07:08:18.926Z,4.92
2022-12-05T07:10:52.250Z,5.09
2022-12-05T07:13:19.857Z,4.63
2022-12-05T07:15:47.539Z,4.92
2022-12-05T07:18:15.428Z,4.58
2022-12-05T07:21:10.723Z,4.92
2022-12-05T07:23:32.119Z,5.06
2022-12-05T07:25:59.967Z,4.85
2022-12-05T07:28:27.400Z,5.34
2022-12-05T07:31:01.065Z,4.42
2022-12-05T07:33:28.750Z,4.59
2022-12-05T07:36:02.159Z,5.08
2022-12-05T07:38:30.699Z,5.24
2022-12-05T07:40:58.191Z,5.20
2022-12-05T07:43:25.931Z,4.72
2022-12-05T07:45:53.450Z,4.55
2022-12-05T07:48:21.223Z,5.09
2022-12-05T07:50:48.712Z,4.24
2022-12-05T07:53:17.658Z,4.27
2022-12-05T07:55:45.114Z,4.28
2022-12-05T07:58:12.592Z,4.35
2022-12-05T08:00:40.026Z,4.56
2022-12-05T08:03:07.479Z,4.38
2022-12-05T08:05:35.338Z,4.80
2022-12-05T08:08:02.855Z,4.59
2022-12-05T08:10:31.986Z,4.70
2022-12-05T08:12:59.498Z,4.93
2022-12-05T08:15:27.007Z,4.40
2022-12-05T08:17:54.442Z,4.92
2022-12-05T08:20:22.088Z,4.34
2022-12-05T08:22:52.810Z,4.84
2022-12-05T08:25:20.370Z,4.39
2022-12-05T08:27:49.106Z,5.08
2022-12-05T08:30:16.644Z,4.59
2022-12-05T08:32:44.046Z,5.05
2022-12-05T08:35:11.537Z,5.39
2022-12-05T08:37:38.950Z,5.23
2022-12-05T08:40:07.523Z,6.17
2022-12-05T08:42:34.955Z,5.15
2022-12-05T08:45:03.954Z,5.07
2022-12-05T08:47:32.587Z,5.01
2022-12-05T08:50:00.408Z,5.45
2022-12-05T08:52:28.275Z,5.73
2022-12-05T08:54:56.095Z,5.73
2022-12-05T08:57:23.723Z,4.89
2022-12-05T08:59:51.107Z,5.16
2022-12-05T09:02:19.894Z,5.48
2022-12-05T09:04:54.062Z,5.02
2022-12-05T09:07:21.747Z,4.74
2022-12-05T09:09:49.182Z,4.93
2022-12-05T09:12:16.635Z,5.05
2022-12-05T09:14:44.048Z,5.16
2022-12-05T09:17:11.452Z,4.83
2022-12-05T09:19:40.186Z,4.52
2022-12-05T09:22:07.628Z,4.40
2022-12-05T09:24:35.020Z,4.33
2022-12-05T09:27:02.491Z,4.83
2022-12-05T09:29:32.437Z,5.00
2022-12-05T09:31:59.855Z,5.15
2022-12-05T09:34:27.490Z,5.02
2022-12-05T09:37:10.638Z,5.56
2022-12-05T09:39:46.026Z,5.36
2022-12-05T09:42:32.269Z,5.56
2022-12-05T09:45:06.174Z,5.04
2022-12-05T09:47:43.785Z,4.97
2022-12-05T09:50:19.971Z,5.29
2022-12-05T09:52:59.133Z,4.82
2022-12-05T09:55:30.707Z,5.57
2022-12-05T09:58:01.455Z,4.89
2022-12-05T10:00:30.547Z,5.37
2022-12-05T10:03:04.828Z,4.94
2022-12-05T10:05:41.828Z,5.36
2022-12-05T10:08:18.857Z,5.81
2022-12-05T10:10:58.042Z,5.99
2022-12-05T10:13:42.338Z,6.01
2022-12-05T10:16:14.192Z,6.21
2022-12-05T10:18:45.043Z,6.56
2022-12-05T10:21:19.616Z,5.21
2022-12-05T10:23:58.270Z,6.20
2022-12-05T10:26:29.442Z,6.25
2022-12-05T10:29:00.305Z,6.19
2022-12-05T10:31:31.743Z,6.16
2022-12-05T10:34:05.884Z,5.65
2022-12-05T10:36:33.640Z,6.16
2022-12-05T10:39:06.945Z,6.45
2022-12-05T10:41:37.388Z,5.80
2022-12-05T10:44:06.071Z,6.10
2022-12-05T10:46:33.817Z,5.99
2022-12-05T10:49:01.290Z,5.79
2022-12-05T10:51:35.624Z,5.58
2022-12-05T10:54:17.286Z,5.30
2022-12-05T10:56:46.948Z,6.08
2022-12-05T10:59:17.144Z,6.63
2022-12-05T11:01:48.491Z,5.85
2022-12-05T11:04:24.669Z,5.93
2022-12-05T11:06:55.053Z,6.04
2022-12-05T11:09:27.042Z,6.69
2022-12-05T11:12:17.725Z,6.83
2022-12-05T11:15:01.172Z,6.50
2022-12-05T11:17:33.392Z,6.52
2022-12-05T11:20:01.614Z,6.58
2022-12-05T11:22:34.501Z,6.77
2022-12-05T11:25:25.254Z,6.78
2022-12-05T11:27:55.863Z,6.51
2022-12-05T11:30:29.249Z,7.11
2022-12-05T11:33:13.216Z,7.06
2022-12-05T11:35:41.168Z,7.18
2022-12-05T11:38:12.150Z,6.76
2022-12-05T11:40:48.626Z,6.23
2022-12-05T11:43:38.094Z,6.27
2022-12-05T11:46:14.649Z,6.94
2022-12-05T11:48:57.989Z,7.09
2022-12-05T11:51:38.060Z,6.69
2022-12-05T11:55:03.957Z,7.24
2022-12-05T11:57:34.909Z,7.01
2022-12-05T12:00:21.948Z,6.58
2022-12-05T12:03:32.563Z,6.88
2022-12-05T12:06:16.300Z,7.07
2022-12-05T12:08:57.105Z,6.68
2022-12-05T12:11:31.302Z,6.81
2022-12-05T12:14:09.382Z,6.83
2022-12-05T12:16:47.169Z,7.22
2022-12-05T12:19:30.990Z,7.03
2022-12-05T12:22:08.310Z,7.31
2022-12-05T12:24:51.360Z,7.28
2022-12-05T12:27:34.754Z,7.27
2022-12-05T12:30:10.703Z,7.43
2022-12-05T12:32:46.668Z,7.60
2022-12-05T12:35:32.875Z,7.17
2022-12-05T12:38:23.537Z,7.21
2022-12-05T12:40:54.029Z,6.76
2022-12-05T12:43:56.815Z,6.30
2022-12-05T12:46:39.123Z,6.19
2022-12-05T12:49:19.913Z,6.83
2022-12-05T12:51:53.857Z,7.40
2022-12-05T12:55:02.859Z,7.31
2022-12-05T12:57:35.206Z,7.22
2022-12-05T13:00:10.814Z,7.38
2022-12-05T13:02:45.925Z,6.84
2022-12-05T13:05:24.533Z,6.91
2022-12-05T13:07:56.739Z,7.17
2022-12-05T13:10:29.336Z,7.34
2022-12-05T13:13:00.240Z,7.34
2022-12-05T13:15:34.483Z,7.54
2022-12-05T13:18:05.385Z,7.54
2022-12-05T13:20:35.766Z,7.38
2022-12-05T13:23:08.221Z,7.03
2022-12-05T13:25:39.937Z,7.28
2022-12-05T13:28:21.309Z,7.45
2022-12-05T13:31:05.813Z,7.68
2022-12-05T13:33:37.283Z,7.42
2022-12-05T13:36:25.845Z,7.17
2022-12-05T13:39:16.291Z,6.87
2022-12-05T13:42:03.729Z,7.15
2022-12-05T13:44:36.291Z,6.85
2022-12-05T13:47:07.331Z,6.87
2022-12-05T13:49:44.898Z,7.14
2022-12-05T13:52:17.120Z,7.37
2022-12-05T13:54:47.976Z,7.55
2022-12-05T13:57:52.363Z,7.38
2022-12-05T14:00:31.914Z,7.61
2022-12-05T14:03:04.451Z,7.56
2022-12-05T14:05:45.426Z,7.61
2022-12-05T14:09:04.066Z,7.65
2022-12-05T14:11:31.765Z,7.24
2022-12-05T14:14:04.333Z,7.72
2022-12-05T14:16:45.366Z,7.54
2022-12-05T14:19:48.664Z,7.20
2022-12-05T14:22:54.805Z,7.52
2022-12-05T14:25:36.147Z,7.48
2022-12-05T14:28:19.079Z,7.39
2022-12-05T14:30:58.682Z,7.29
2022-12-05T14:33:26.511Z,7.60
2022-12-05T14:35:54.473Z,7.72
2022-12-05T14:38:28.541Z,7.74
2022-12-05T14:41:12.599Z,7.69
2022-12-05T14:43:41.803Z,7.73
2022-12-05T14:46:17.656Z,7.67
2022-12-05T14:48:48.296Z,7.45
2022-12-05T14:51:44.763Z,7.37
2022-12-05T14:54:16.668Z,7.67
2022-12-05T14:56:47.564Z,7.63
2022-12-05T14:59:25.974Z,7.07
2022-12-05T15:01:57.115Z,7.21
2022-12-05T15:04:33.349Z,7.35
2022-12-05T15:07:05.376Z,7.44
2022-12-05T15:09:44.036Z,7.05
2022-12-05T15:12:18.034Z,7.22
2022-12-05T15:14:53.315Z,8.37
2022-12-05T15:17:26.678Z,8.16
2022-12-05T15:20:00.189Z,7.87
2022-12-05T15:22:30.314Z,7.98
2022-12-05T15:24:58.030Z,7.90
2022-12-05T15:27:26.993Z,7.88
2022-12-05T15:29:56.654Z,7.25
2022-12-05T15:32:28.092Z,7.51
2022-12-05T15:35:02.497Z,7.54
2022-12-05T15:37:35.428Z,7.70
2022-12-05T15:40:10.269Z,7.42
2022-12-05T15:42:43.377Z,7.92
2022-12-05T15:45:24.200Z,8.00
2022-12-05T15:47:55.011Z,7.89
2022-12-05T15:50:27.663Z,7.28
2022-12-05T15:52:59.238Z,7.83
2022-12-05T15:55:32.816Z,7.73
2022-12-05T15:58:12.656Z,7.76
2022-12-05T16:00:44.530Z,7.79
2022-12-05T16:03:17.846Z,7.84
2022-12-05T16:05:50.514Z,7.81
2022-12-05T16:08:18.357Z,7.76
2022-12-05T16:10:45.922Z,7.41
2022-12-05T16:13:16.498Z,7.56
2022-12-05T16:15:53.035Z,7.59
2022-12-05T16:18:26.549Z,7.63
2022-12-05T16:20:54.203Z,7.56
2022-12-05T16:23:29.884Z,7.21
2022-12-05T16:26:12.353Z,7.83
2022-12-05T16:28:41.291Z,7.72
2022-12-05T16:31:09.098Z,7.88
2022-12-05T16:33:41.823Z,7.79
2022-12-05T16:36:11.587Z,7.86
2022-12-05T16:38:40.791Z,7.59
2022-12-05T16:41:09.252Z,7.88
2022-12-05T16:43:46.192Z,7.76
2022-12-05T16:46:43.808Z,7.95
2022-12-05T16:49:20.520Z,7.83
2022-12-05T16:51:55.682Z,7.48
2022-12-05T16:54:23.113Z,7.84
2022-12-05T16:56:50.952Z,7.88
2022-12-05T16:59:24.062Z,7.58
2022-12-05T17:01:51.644Z,7.94
2022-12-05T17:04:19.179Z,7.48
2022-12-05T17:06:46.649Z,7.62
2022-12-05T17:09:14.088Z,7.86
2022-12-05T17:11:45.359Z,7.78
2022-12-05T17:14:14.922Z,7.74
2022-12-05T17:16:44.479Z,7.84
2022-12-05T17:19:12.699Z,7.81
2022-12-05T17:21:42.948Z,8.03
2022-12-05T17:24:15.810Z,7.70
2022-12-05T17:26:43.262Z,7.83
2022-12-05T17:29:11.584Z,7.79
2022-12-05T17:31:39.427Z,7.78
2022-12-05T17:34:15.676Z,7.91
2022-12-05T17:36:43.240Z,8.05
2022-12-05T17:39:10.731Z,8.16
2022-12-05T17:41:38.434Z,8.05
2022-12-05T17:44:06.440Z,7.81
2022-12-05T17:46:34.401Z,7.83
2022-12-05T17:49:01.873Z,7.88
2022-12-05T17:51:30.746Z,7.91
2022-12-05T17:53:58.180Z,8.00
2022-12-05T17:56:25.571Z,7.80
2022-12-05T17:58:53.020Z,7.79
2022-12-05T18:01:21.476Z,8.01
2022-12-05T18:03:49.753Z,8.05
2022-12-05T18:06:18.415Z,7.71
2022-12-05T18:08:47.176Z,7.37
2022-12-05T18:11:15.816Z,7.85
2022-12-05T18:13:43.332Z,7.96
2022-12-05T18:16:10.874Z,7.62
2022-12-05T18:18:38.311Z,7.49
2022-12-05T18:21:08.077Z,7.37
2022-12-05T18:23:37.056Z,7.87
2022-12-05T18:26:07.237Z,8.12
2022-12-05T18:28:35.412Z,7.86
2022-12-05T18:31:08.603Z,7.96
2022-12-05T18:33:36.364Z,7.60
2022-12-05T18:36:08.745Z,8.14
2022-12-05T18:38:36.650Z,8.16
2022-12-05T18:41:07.011Z,8.05
2022-12-05T18:43:35.003Z,8.10
2022-12-05T18:46:05.316Z,8.02
2022-12-05T18:48:46.012Z,7.99
2022-12-05T18:51:16.846Z,8.09
2022-12-05T18:53:51.525Z,7.95
2022-12-05T18:56:23.715Z,8.04
2022-12-05T18:58:55.823Z,8.26
2022-12-05T19:01:23.501Z,8.18
2022-12-05T19:03:51.539Z,8.03
2022-12-05T19:06:21.324Z,8.17
2022-12-05T19:08:49.275Z,8.03
2022-12-05T19:11:20.112Z,8.04
2022-12-05T19:13:48.234Z,8.29
2022-12-05T19:16:18.516Z,8.22
2022-12-05T19:18:46.903Z,7.80
2022-12-05T19:21:14.861Z,8.04
2022-12-05T19:23:42.400Z,8.17
2022-12-05T19:26:11.163Z,8.05
2022-12-05T19:28:39.895Z,7.81
2022-12-05T19:31:09.961Z,7.45
2022-12-05T19:33:39.006Z,7.68
2022-12-05T19:36:09.953Z,7.93
2022-12-05T19:38:38.336Z,8.15
2022-12-05T19:41:07.703Z,8.06
2022-12-05T19:43:36.757Z,8.13
2022-12-05T19:46:07.419Z,7.58
2022-12-05T19:48:34.973Z,8.03
2022-12-05T19:51:02.670Z,7.99
2022-12-05T19:53:31.523Z,8.21
2022-12-05T19:56:02.443Z,8.06
2022-12-05T19:58:31.999Z,8.00
2022-12-05T20:01:09.186Z,8.13
2022-12-05T20:03:36.926Z,8.02
2022-12-05T20:06:04.707Z,7.79
2022-12-05T20:08:32.363Z,7.65
2022-12-05T20:11:04.715Z,7.91
2022-12-05T20:13:48.055Z,7.86
2022-12-05T20:16:21.355Z,7.83
2022-12-05T20:18:50.028Z,7.91
2022-12-05T20:21:19.335Z,8.05
2022-12-05T20:23:47.155Z,7.86
2022-12-05T20:26:17.699Z,7.93
2022-12-05T20:28:45.328Z,7.81
2022-12-05T20:31:14.787Z,7.58
2022-12-05T20:33:44.349Z,7.80
2022-12-05T20:36:14.117Z,7.92
2022-12-05T20:38:42.085Z,7.89
2022-12-05T20:41:11.354Z,7.90
2022-12-05T20:43:39.301Z,7.90
2022-12-05T20:46:08.461Z,7.78
2022-12-05T20:48:36.604Z,7.97
2022-12-05T20:51:07.079Z,7.85
2022-12-05T20:53:35.948Z,7.51
2022-12-05T20:56:04.955Z,7.66
2022-12-05T20:58:32.469Z,7.58
2022-12-05T21:01:00.519Z,7.49
2022-12-05T21:03:28.275Z,7.61
2022-12-05T21:05:55.790Z,7.72
2022-12-05T21:08:24.541Z,7.81
2022-12-05T21:10:53.487Z,7.44
2022-12-05T21:13:21.216Z,7.53
2022-12-05T21:15:48.746Z,7.40
2022-12-05T21:18:16.212Z,7.39
2022-12-05T21:20:43.647Z,7.56
2022-12-05T21:23:11.338Z,7.62
2022-12-05T21:25:40.065Z,7.65
2022-12-05T21:28:07.458Z,7.23
2022-12-05T21:30:35.553Z,7.74
2022-12-05T21:33:05.449Z,7.69
2022-12-05T21:35:33.270Z,6.95
2022-12-05T21:38:01.189Z,7.15
2022-12-05T21:40:29.552Z,6.96
2022-12-05T21:42:58.301Z,7.24
2022-12-05T21:45:25.760Z,7.54
2022-12-05T21:47:53.826Z,7.64
2022-12-05T21:50:21.220Z,7.41
2022-12-05T21:52:48.622Z,6.92
2022-12-05T21:55:16.024Z,7.37
2022-12-05T21:57:43.426Z,7.26
2022-12-05T22:00:13.184Z,7.25
2022-12-05T22:02:40.619Z,7.41
2022-12-05T22:05:08.794Z,7.53
2022-12-05T22:07:36.262Z,7.46
2022-12-05T22:10:03.957Z,7.20
2022-12-05T22:12:34.293Z,7.41
2022-12-05T22:15:02.156Z,7.16
2022-12-05T22:17:31.189Z,7.10
2022-12-05T22:20:01.947Z,7.46
2022-12-05T22:22:31.267Z,7.55
2022-12-05T22:24:59.070Z,7.55
2022-12-05T22:27:27.923Z,7.49
2022-12-05T22:29:55.316Z,7.34
2022-12-05T22:32:22.857Z,7.57
2022-12-05T22:34:59.184Z,7.65
2022-12-05T22:37:29.642Z,7.38
2022-12-05T22:39:59.443Z,7.34
2022-12-05T22:42:27.845Z,7.25
2022-12-05T22:44:56.330Z,6.95
2022-12-05T22:47:23.805Z,7.14
2022-12-05T22:49:52.530Z,7.34
2022-12-05T22:52:20.113Z,7.38
2022-12-05T22:54:47.507Z,7.26
2022-12-05T22:57:17.268Z,7.40
2022-12-05T22:59:44.704Z,7.31
2022-12-05T23:02:12.119Z,7.39
2022-12-05T23:04:42.058Z,7.39
2022-12-05T23:07:10.814Z,7.27
2022-12-05T23:09:38.283Z,7.37
2022-12-05T23:12:06.216Z,7.34
2022-12-05T23:14:33.728Z,7.25
2022-12-05T23:17:01.281Z,7.45
2022-12-05T23:19:28.756Z,7.24
2022-12-05T23:21:56.398Z,7.39
2022-12-05T23:24:25.245Z,7.15
2022-12-05T23:26:52.693Z,7.41
2022-12-05T23:29:20.241Z,7.01
2022-12-05T23:31:47.708Z,7.00
2022-12-05T23:34:15.203Z,7.65
2022-12-05T23:36:42.680Z,8.20
2022-12-05T23:39:10.424Z,8.86
2022-12-05T23:41:39.218Z,8.90
2022-12-05T23:44:06.700Z,7.77
2022-12-05T23:46:34.254Z,9.71
2022-12-05T23:49:01.865Z,9.25
2022-12-05T23:51:30.480Z,8.77
2022-12-05T23:54:00.206Z,8.68
2022-12-05T23:56:29.470Z,8.27
2022-12-05T23:58:58.236Z,7.96
